createdAt,value
2023-02-24T00:00:39.974Z,34.29
2023-02-24T00:01:40.018Z,34.26
2023-02-24T00:02:40.070Z,34.28
2023-02-24T00:03:40.117Z,34.27
2023-02-24T00:04:40.181Z,34.24
2023-02-24T00:05:40.179Z,34.26
2023-02-24T00:06:40.255Z,34.26
2023-02-24T00:07:40.378Z,34.23
2023-02-24T00:08:40.364Z,34.24
2023-02-24T00:09:40.405Z,34.26
2023-02-24T00:10:40.414Z,34.28
2023-02-24T00:11:40.473Z,34.24
2023-02-24T00:12:40.519Z,34.24
2023-02-24T00:13:40.528Z,34.21
2023-02-24T00:14:40.556Z,34.24
2023-02-24T00:15:41.593Z,34.24
2023-02-24T00:16:40.742Z,34.26
2023-02-24T00:17:40.685Z,34.20
2023-02-24T00:18:40.740Z,34.22
2023-02-24T00:19:40.774Z,34.24
2023-02-24T00:20:40.801Z,34.20
2023-02-24T00:21:40.862Z,34.22
2023-02-24T00:22:40.898Z,34.21
2023-02-24T00:23:40.965Z,34.20
2023-02-24T00:24:41.040Z,34.21
2023-02-24T00:25:41.028Z,34.22
2023-02-24T00:26:41.056Z,34.20
2023-02-24T00:27:41.086Z,34.20
2023-02-24T00:28:41.103Z,34.19
2023-02-24T00:29:41.127Z,34.21
2023-02-24T00:30:41.251Z,34.20
2023-02-24T00:31:41.384Z,34.20
2023-02-24T00:32:41.332Z,34.19
2023-02-24T00:33:41.283Z,34.17
2023-02-24T00:34:41.361Z,34.19
2023-02-24T00:35:41.340Z,34.19
2023-02-24T00:36:41.365Z,34.19
2023-02-24T00:37:41.417Z,34.16
2023-02-24T00:38:41.466Z,34.17
2023-02-24T00:39:42.148Z,34.15
2023-02-24T00:40:41.540Z,34.16
2023-02-24T00:41:41.593Z,34.17
2023-02-24T00:42:41.636Z,34.18
2023-02-24T00:43:41.677Z,34.17
2023-02-24T00:44:41.696Z,34.17
2023-02-24T00:45:41.737Z,34.14
2023-02-24T00:46:41.914Z,34.15
2023-02-24T00:47:41.802Z,34.13
2023-02-24T00:48:41.855Z,34.14
2023-02-24T00:49:41.904Z,34.13
2023-02-24T00:50:41.933Z,34.17
2023-02-24T00:51:41.958Z,34.16
2023-02-24T00:52:41.970Z,34.12
2023-02-24T00:53:41.985Z,34.14
2023-02-24T00:54:42.016Z,34.14
2023-02-24T00:55:42.022Z,34.12
2023-02-24T00:56:42.047Z,34.11
2023-02-24T00:57:42.044Z,34.13
2023-02-24T00:58:42.080Z,34.11
2023-02-24T00:59:42.081Z,34.10
2023-02-24T01:00:42.135Z,34.14
2023-02-24T01:01:42.260Z,34.14
2023-02-24T01:02:42.165Z,34.12
2023-02-24T01:03:42.225Z,34.13
2023-02-24T01:04:42.200Z,34.13
2023-02-24T01:05:42.240Z,34.14
2023-02-24T01:06:42.243Z,34.12
2023-02-24T01:07:42.257Z,34.13
2023-02-24T01:08:42.265Z,34.12
2023-02-24T01:09:42.419Z,34.10
2023-02-24T01:10:42.277Z,34.10
2023-02-24T01:11:42.329Z,34.08
2023-02-24T01:12:42.311Z,34.09
2023-02-24T01:13:42.318Z,34.09
2023-02-24T01:14:42.335Z,34.09
2023-02-24T01:15:42.441Z,34.12
2023-02-24T01:16:42.370Z,34.10
2023-02-24T01:17:42.379Z,34.11
2023-02-24T01:18:42.381Z,34.08
2023-02-24T01:19:42.387Z,34.08
2023-02-24T01:20:42.406Z,34.09
2023-02-24T01:21:42.399Z,34.09
2023-02-24T01:22:42.414Z,34.06
2023-02-24T01:23:42.458Z,34.06
2023-02-24T01:24:42.452Z,34.07
2023-02-24T01:25:43.232Z,34.08
2023-02-24T01:26:42.489Z,34.06
2023-02-24T01:27:42.514Z,34.06
2023-02-24T01:28:42.563Z,34.04
2023-02-24T02:23:44.256Z,33.93
2023-02-24T02:24:44.341Z,33.91
2023-02-24T02:25:44.308Z,33.91
2023-02-24T02:26:44.319Z,33.92
2023-02-24T02:27:44.348Z,33.92
2023-02-24T02:28:44.375Z,33.89
2023-02-24T02:29:44.386Z,33.89
2023-02-24T02:30:44.459Z,33.92
2023-02-24T02:31:44.646Z,33.90
2023-02-24T02:32:44.589Z,33.89
2023-02-24T02:33:44.530Z,33.87
2023-02-24T02:34:44.570Z,33.89
2023-02-24T02:35:44.609Z,33.91
2023-02-24T02:36:44.616Z,33.87
2023-02-24T02:37:44.646Z,33.88
2023-02-24T02:38:44.663Z,33.86
2023-02-24T02:39:44.672Z,33.85
2023-02-24T02:40:44.696Z,33.87
2023-02-24T02:41:44.688Z,33.85
2023-02-24T02:42:44.733Z,33.89
2023-02-24T02:43:44.747Z,33.87
2023-02-24T02:44:44.770Z,33.87
2023-02-24T02:45:44.811Z,33.87
2023-02-24T02:46:44.839Z,33.89
2023-02-24T02:47:44.856Z,33.89
2023-02-24T02:48:44.881Z,33.85
2023-02-24T02:49:44.902Z,33.86
2023-02-24T02:50:44.939Z,33.85
2023-02-24T02:51:44.953Z,33.87
2023-02-24T02:52:44.957Z,33.88
2023-02-24T03:17:45.500Z,33.85
2023-02-24T03:18:45.529Z,33.81
2023-02-24T03:19:45.532Z,33.80
2023-02-24T03:20:45.577Z,33.78
2023-02-24T03:36:45.952Z,33.80
2023-02-24T03:37:45.975Z,33.77
2023-02-24T03:38:46.020Z,33.78
2023-02-24T03:39:46.064Z,33.76
2023-02-24T03:40:46.093Z,33.76
2023-02-24T03:41:46.140Z,33.78
2023-02-24T03:42:46.173Z,33.77
2023-02-24T03:43:46.182Z,33.76
2023-02-24T03:44:46.232Z,33.76
2023-02-24T03:45:46.391Z,33.72
2023-02-24T03:46:46.296Z,33.71
2023-02-24T03:47:46.305Z,33.73
2023-02-24T03:48:46.345Z,33.75
2023-02-24T03:49:46.370Z,33.75
2023-02-24T03:50:46.419Z,33.71
2023-02-24T03:51:46.444Z,33.71
2023-02-24T03:52:46.473Z,33.71
2023-02-24T03:53:46.535Z,33.72
2023-02-24T03:54:46.555Z,33.72
2023-02-24T03:55:46.597Z,33.71
2023-02-24T03:56:46.731Z,33.68
2023-02-24T03:57:46.663Z,33.68
2023-02-24T03:58:46.685Z,33.70
2023-02-24T03:59:46.744Z,33.72
2023-02-24T04:00:46.744Z,33.68
2023-02-24T04:01:46.767Z,33.66
2023-02-24T04:02:46.883Z,33.68
2023-02-24T04:03:46.829Z,33.67
2023-02-24T04:04:46.915Z,33.68
2023-02-24T04:05:46.879Z,33.69
2023-02-24T04:06:46.888Z,33.67
2023-02-24T04:07:46.905Z,33.67
2023-02-24T04:08:46.922Z,33.65
2023-02-24T04:09:46.950Z,33.66
2023-02-24T04:10:46.950Z,33.66
2023-02-24T04:11:46.981Z,33.66
2023-02-24T04:12:47.199Z,33.66
2023-02-24T04:13:47.025Z,33.61
2023-02-24T04:14:47.036Z,33.65
2023-02-24T04:15:47.076Z,33.66
2023-02-24T04:16:47.101Z,33.62
2023-02-24T04:17:47.121Z,33.62
2023-02-24T04:18:47.181Z,33.61
2023-02-24T04:19:47.207Z,33.58
2023-02-24T04:20:47.251Z,33.59
2023-02-24T04:21:47.260Z,33.60
2023-02-24T04:22:47.294Z,33.57
2023-02-24T04:23:47.306Z,33.59
2023-02-24T04:24:47.327Z,33.57
2023-02-24T04:25:47.368Z,33.60
2023-02-24T04:26:47.399Z,33.57
2023-02-24T04:27:47.426Z,33.58
2023-02-24T04:28:47.451Z,33.59
2023-02-24T04:29:47.464Z,33.60
2023-02-24T04:30:47.547Z,33.64
2023-02-24T04:31:47.754Z,33.60
2023-02-24T04:32:47.686Z,33.61
2023-02-24T04:33:47.616Z,33.61
2023-02-24T04:34:47.701Z,33.60
2023-02-24T04:35:47.641Z,33.61
2023-02-24T04:36:47.693Z,33.61
2023-02-24T04:37:47.710Z,33.60
2023-02-24T04:38:47.733Z,33.61
2023-02-24T04:39:47.793Z,33.61
2023-02-24T04:40:47.805Z,33.58
2023-02-24T04:41:47.851Z,33.56
2023-02-24T04:42:47.899Z,33.57
2023-02-24T04:43:47.928Z,33.52
2023-02-24T04:44:47.965Z,33.53
2023-02-24T04:45:47.978Z,33.57
2023-02-24T04:46:48.073Z,33.57
2023-02-24T04:47:48.018Z,33.57
2023-02-24T04:48:48.044Z,33.56
2023-02-24T04:49:48.070Z,33.55
2023-02-24T04:50:48.091Z,33.55
2023-02-24T04:51:48.102Z,33.54
2023-02-24T04:52:48.121Z,33.53
2023-02-24T04:53:48.149Z,33.55
2023-02-24T04:54:48.159Z,33.53
2023-02-24T04:55:48.199Z,33.50
2023-02-24T04:56:48.241Z,33.50
2023-02-24T04:57:48.259Z,33.53
2023-02-24T04:58:48.269Z,33.49
2023-02-24T04:59:48.294Z,33.48
2023-02-24T05:00:48.295Z,33.51
2023-02-24T05:01:48.313Z,33.48
2023-02-24T05:02:48.332Z,33.47
2023-02-24T05:03:48.473Z,33.50
2023-02-24T05:04:48.398Z,33.47
2023-02-24T05:05:48.343Z,33.47
2023-02-24T05:06:48.362Z,33.53
2023-02-24T05:07:48.371Z,33.45
2023-02-24T05:08:48.393Z,33.48
2023-02-24T05:09:48.388Z,33.46
2023-02-24T05:10:48.411Z,33.49
2023-02-24T05:11:48.422Z,33.50
2023-02-24T05:12:48.448Z,33.49
2023-02-24T05:13:48.467Z,33.48
2023-02-24T05:14:48.484Z,33.47
2023-02-24T05:15:49.248Z,33.46
2023-02-24T05:16:48.536Z,33.45
2023-02-24T05:17:48.562Z,33.46
2023-02-24T05:18:48.586Z,33.48
2023-02-24T05:19:48.611Z,33.48
2023-02-24T05:20:48.645Z,33.48
2023-02-24T05:21:48.652Z,33.44
2023-02-24T05:22:48.672Z,33.47
2023-02-24T05:23:48.670Z,33.44
2023-02-24T05:24:48.731Z,33.45
2023-02-24T05:25:48.741Z,33.43
2023-02-24T05:26:48.749Z,33.44
2023-02-24T05:27:48.764Z,33.42
2023-02-24T05:28:48.774Z,33.43
2023-02-24T05:29:48.799Z,33.45
2023-02-24T05:30:48.827Z,33.48
2023-02-24T05:31:48.970Z,33.41
2023-02-24T05:32:48.949Z,33.45
2023-02-24T05:33:48.895Z,33.43
2023-02-24T05:34:48.935Z,33.42
2023-02-24T05:35:48.975Z,33.42
2023-02-24T05:36:48.999Z,33.44
2023-02-24T05:37:49.029Z,33.42
2023-02-24T05:38:49.070Z,33.43
2023-02-24T05:39:49.104Z,33.42
2023-02-24T05:40:49.120Z,33.42
2023-02-24T05:41:49.170Z,33.40
2023-02-24T05:42:49.174Z,33.40
2023-02-24T05:43:49.182Z,33.44
2023-02-24T05:44:49.210Z,33.39
2023-02-24T05:45:49.217Z,33.43
2023-02-24T05:46:49.232Z,33.43
2023-02-24T05:47:49.269Z,33.43
2023-02-24T05:48:49.278Z,33.44
2023-02-24T05:49:49.299Z,33.44
2023-02-24T05:50:49.314Z,33.44
2023-02-24T05:51:49.352Z,33.38
2023-02-24T05:52:49.372Z,33.41
2023-02-24T05:53:49.398Z,33.38
2023-02-24T05:54:49.438Z,33.41
2023-02-24T05:55:49.567Z,33.40
2023-02-24T05:56:49.569Z,33.39
2023-02-24T05:57:49.604Z,33.41
2023-02-24T05:58:49.671Z,33.37
2023-02-24T05:59:49.693Z,33.37
2023-02-24T06:00:49.747Z,33.38
2023-02-24T06:01:49.860Z,33.37
2023-02-24T06:02:49.993Z,33.37
2023-02-24T06:03:49.892Z,33.40
2023-02-24T06:04:49.930Z,33.57
2023-02-24T06:05:50.001Z,33.50
2023-02-24T06:06:50.009Z,34.08
2023-02-24T06:07:50.019Z,33.87
2023-02-24T06:08:50.129Z,33.68
2023-02-24T06:09:50.320Z,33.75
2023-02-24T06:10:50.079Z,33.98
2023-02-24T06:11:50.190Z,34.05
2023-02-24T06:12:50.111Z,34.00
2023-02-24T06:13:50.130Z,33.88
2023-02-24T06:14:50.142Z,33.89
2023-02-24T06:15:50.153Z,34.37
2023-02-24T06:16:50.308Z,34.92
2023-02-24T06:17:50.205Z,34.73
2023-02-24T06:18:50.235Z,34.70
2023-02-24T06:19:50.274Z,34.67
2023-02-24T06:20:50.289Z,34.63
2023-02-24T06:21:50.307Z,34.78
2023-02-24T06:22:50.340Z,34.57
2023-02-24T06:23:50.360Z,35.12
2023-02-24T06:24:50.424Z,35.04
2023-02-24T06:25:50.567Z,35.37
2023-02-24T06:26:50.447Z,35.47
2023-02-24T06:27:50.479Z,35.62
2023-02-24T06:28:50.537Z,35.87
2023-02-24T06:29:51.532Z,35.80
2023-02-24T06:30:50.933Z,35.92
2023-02-24T06:31:50.643Z,35.47
2023-02-24T06:32:50.656Z,35.23
2023-02-24T06:33:50.627Z,35.09
2023-02-24T06:34:50.613Z,34.70
2023-02-24T06:35:50.635Z,34.40
2023-02-24T06:36:50.648Z,34.43
2023-02-24T06:37:51.180Z,34.41
2023-02-24T06:38:50.757Z,34.45
2023-02-24T06:39:50.806Z,34.46
2023-02-24T06:40:50.874Z,34.53
2023-02-24T06:41:50.931Z,34.55
2023-02-24T06:42:50.972Z,34.54
2023-02-24T06:43:51.025Z,34.51
2023-02-24T06:44:51.086Z,34.43
2023-02-24T06:45:51.204Z,34.43
2023-02-24T06:46:51.185Z,34.30
2023-02-24T06:47:52.683Z,34.41
2023-02-24T06:48:52.192Z,34.38
2023-02-24T06:49:51.350Z,34.29
2023-02-24T06:50:51.396Z,34.30
2023-02-24T06:51:51.464Z,34.42
2023-02-24T06:52:51.482Z,34.33
2023-02-24T06:53:51.553Z,34.36
2023-02-24T06:54:51.595Z,34.30
2023-02-24T06:55:51.716Z,34.37
2023-02-24T06:56:51.680Z,35.25
2023-02-24T06:57:51.786Z,36.20
2023-02-24T06:58:51.739Z,36.08
2023-02-24T06:59:51.871Z,35.94
2023-02-24T07:00:51.816Z,35.78
2023-02-24T07:01:51.812Z,35.28
2023-02-24T07:02:51.843Z,34.67
2023-02-24T07:03:51.936Z,34.55
2023-02-24T07:04:51.954Z,34.59
2023-02-24T07:05:51.935Z,34.44
2023-02-24T07:06:52.000Z,34.44
2023-02-24T07:07:52.014Z,34.37
2023-02-24T07:08:52.075Z,34.36
2023-02-24T07:09:52.104Z,34.27
2023-02-24T07:10:52.143Z,34.28
2023-02-24T07:11:52.185Z,34.27
2023-02-24T07:12:52.193Z,34.23
2023-02-24T07:13:52.219Z,34.20
2023-02-24T07:14:52.248Z,34.19
2023-02-24T07:15:54.306Z,34.17
2023-02-24T07:16:52.371Z,34.16
2023-02-24T07:17:52.374Z,34.30
2023-02-24T07:18:53.206Z,34.22
2023-02-24T07:19:52.488Z,34.32
2023-02-24T07:20:52.564Z,34.70
2023-02-24T07:21:52.620Z,35.18
2023-02-24T07:22:53.628Z,35.50
2023-02-24T07:23:53.620Z,35.74
2023-02-24T07:24:52.664Z,35.69
2023-02-24T07:25:52.650Z,35.78
2023-02-24T07:26:52.684Z,35.65
2023-02-24T07:27:52.690Z,35.17
2023-02-24T07:28:52.694Z,34.82
2023-02-24T07:29:53.765Z,34.77
2023-02-24T07:30:52.848Z,34.60
2023-02-24T07:31:52.893Z,34.46
2023-02-24T07:32:54.204Z,34.44
2023-02-24T07:33:53.242Z,34.45
2023-02-24T07:34:53.752Z,34.40
2023-02-24T07:35:52.810Z,34.41
2023-02-24T07:36:52.867Z,34.41
2023-02-24T07:37:52.931Z,34.43
2023-02-24T07:38:53.935Z,34.50
2023-02-24T07:39:52.953Z,34.53
2023-02-24T07:40:52.959Z,34.55
2023-02-24T07:41:52.942Z,34.67
2023-02-24T07:42:52.965Z,34.68
2023-02-24T07:43:52.975Z,34.69
2023-02-24T07:44:52.973Z,34.65
2023-02-24T07:45:53.057Z,34.73
2023-02-24T07:46:52.975Z,34.86
2023-02-24T07:47:52.978Z,34.66
2023-02-24T07:48:52.995Z,34.51
2023-02-24T07:49:53.059Z,34.68
2023-02-24T07:50:53.134Z,34.50
2023-02-24T07:51:53.229Z,34.58
2023-02-24T07:52:53.299Z,34.62
2023-02-24T07:53:53.390Z,34.49
2023-02-24T07:54:53.455Z,34.35
2023-02-24T07:55:53.550Z,34.24
2023-02-24T07:56:53.595Z,34.31
2023-02-24T07:57:53.659Z,34.29
2023-02-24T07:58:53.712Z,34.26
2023-02-24T07:59:53.787Z,34.26
2023-02-24T08:00:53.864Z,34.25
2023-02-24T08:01:53.938Z,34.27
2023-02-24T08:02:54.099Z,34.21
2023-02-24T08:03:54.054Z,34.24
2023-02-24T08:04:54.111Z,34.21
2023-02-24T08:05:54.167Z,34.24
2023-02-24T08:06:54.216Z,34.25
2023-02-24T08:07:54.284Z,34.26
2023-02-24T08:08:54.377Z,34.30
2023-02-24T08:09:54.425Z,34.23
2023-02-24T08:10:54.493Z,34.28
2023-02-24T08:11:54.553Z,34.27
2023-02-24T08:12:54.610Z,34.24
2023-02-24T08:13:54.708Z,34.29
2023-02-24T08:14:54.772Z,34.25
2023-02-24T08:15:54.860Z,34.86
2023-02-24T08:16:54.896Z,34.90
2023-02-24T08:21:55.104Z,36.75
2023-02-24T08:25:56.324Z,35.53
2023-02-24T08:28:55.551Z,35.12
2023-02-24T08:33:56.807Z,35.16
2023-02-24T08:34:56.054Z,35.46
2023-02-24T08:35:56.064Z,35.43
2023-02-24T08:36:56.274Z,35.13
2023-02-24T08:37:56.169Z,35.28
2023-02-24T08:39:56.174Z,34.92
2023-02-24T08:40:56.178Z,34.82
2023-02-24T08:41:56.181Z,34.84
2023-02-24T08:42:56.188Z,34.83
2023-02-24T08:43:56.241Z,34.84
2023-02-24T08:44:56.224Z,34.82
2023-02-24T08:45:56.225Z,34.82
2023-02-24T08:46:56.300Z,34.86
2023-02-24T08:47:57.319Z,34.81
2023-02-24T08:48:56.417Z,34.92
2023-02-24T08:49:56.488Z,34.89
2023-02-24T08:50:56.566Z,34.71
2023-02-24T08:51:56.638Z,34.56
2023-02-24T08:52:56.701Z,34.63
2023-02-24T08:53:56.754Z,34.68
2023-02-24T08:54:56.829Z,34.81
2023-02-24T08:55:56.899Z,34.60
2023-02-24T08:56:57.014Z,34.58
2023-02-24T08:57:57.029Z,34.58
2023-02-24T08:58:57.287Z,34.50
2023-02-24T08:59:57.181Z,34.49
2023-02-24T09:00:57.297Z,34.51
2023-02-24T09:02:04.554Z,34.50
2023-02-24T09:02:58.356Z,34.48
2023-02-24T09:03:57.372Z,34.50
2023-02-24T09:04:57.433Z,34.52
2023-02-24T09:05:57.363Z,34.50
2023-02-24T09:07:00.267Z,34.47
2023-02-24T09:07:58.375Z,34.54
2023-02-24T09:08:57.376Z,34.77
2023-02-24T09:09:58.337Z,34.96
2023-02-24T09:10:57.443Z,35.15
2023-02-24T09:11:57.484Z,35.07
2023-02-24T09:12:57.446Z,35.71
2023-02-24T09:13:57.445Z,36.30
2023-02-24T09:14:57.494Z,36.70
2023-02-24T09:15:57.472Z,36.28
2023-02-24T09:16:57.484Z,36.46
2023-02-24T09:17:57.506Z,36.56
2023-02-24T09:18:57.543Z,35.80
2023-02-24T09:19:57.511Z,35.05
2023-02-24T09:20:57.569Z,34.86
2023-02-24T09:21:57.571Z,34.92
2023-02-24T09:22:57.573Z,34.44
2023-02-24T09:23:57.613Z,33.89
2023-02-24T09:24:58.335Z,33.29
2023-02-24T09:25:57.630Z,33.42
2023-02-24T09:26:57.637Z,32.39
2023-02-24T09:27:57.680Z,32.68
2023-02-24T09:29:57.749Z,33.50
2023-02-24T09:30:57.796Z,33.57
2023-02-24T09:31:58.075Z,33.97
2023-02-24T09:32:58.419Z,33.72
2023-02-24T09:33:58.699Z,33.57
2023-02-24T09:42:57.875Z,34.76
2023-02-24T09:44:58.904Z,34.86
2023-02-24T09:45:58.015Z,34.87
2023-02-24T09:46:59.244Z,34.90
2023-02-24T09:47:58.096Z,34.89
2023-02-24T09:48:58.133Z,34.83
2023-02-24T09:49:58.183Z,34.92
2023-02-24T09:51:03.886Z,34.93
2023-02-24T09:51:59.415Z,34.90
2023-02-24T09:53:06.297Z,34.89
2023-02-24T09:53:59.466Z,34.84
2023-02-24T09:54:58.461Z,34.85
2023-02-24T09:55:58.499Z,34.91
2023-02-24T09:56:58.471Z,34.91
2023-02-24T09:57:58.559Z,34.88
2023-02-24T09:58:58.546Z,34.79
2023-02-24T09:59:59.362Z,34.79
2023-02-24T10:00:59.108Z,34.77
2023-02-24T10:01:58.558Z,34.98
2023-02-24T10:02:58.609Z,35.01
2023-02-24T10:03:58.574Z,35.07
2023-02-24T10:04:58.520Z,34.94
2023-02-24T10:05:58.507Z,34.88
2023-02-24T10:06:58.542Z,34.92
2023-02-24T10:07:58.502Z,34.98
2023-02-24T10:08:58.515Z,35.01
2023-02-24T10:09:58.544Z,35.05
2023-02-24T10:10:58.584Z,35.00
2023-02-24T10:12:58.513Z,35.02
2023-02-24T10:14:03.463Z,35.12
2023-02-24T10:15:00.382Z,35.20
2023-02-24T10:15:58.781Z,35.42
2023-02-24T10:16:58.572Z,36.01
2023-02-24T10:17:58.533Z,36.22
2023-02-24T10:18:58.544Z,36.37
2023-02-24T10:19:58.757Z,36.29
2023-02-24T10:20:58.610Z,36.34
2023-02-24T10:21:58.646Z,36.16
2023-02-24T10:22:58.727Z,36.12
2023-02-24T10:23:58.866Z,35.99
2023-02-24T10:24:58.868Z,35.90
2023-02-24T10:25:58.930Z,35.67
2023-02-24T10:27:01.300Z,35.55
2023-02-24T10:28:00.030Z,35.56
2023-02-24T10:28:59.007Z,35.51
2023-02-24T10:29:59.007Z,35.52
2023-02-24T10:30:59.156Z,35.55
2023-02-24T10:31:59.216Z,35.54
2023-02-24T10:32:59.278Z,35.60
2023-02-24T10:33:59.028Z,35.55
2023-02-24T10:34:59.026Z,35.64
2023-02-24T10:35:59.038Z,35.53
2023-02-24T10:36:59.124Z,35.57
2023-02-24T10:37:59.149Z,35.65
2023-02-24T10:38:59.198Z,35.63
2023-02-24T10:39:59.300Z,35.64
2023-02-24T10:40:59.334Z,35.70
2023-02-24T10:41:59.474Z,35.93
2023-02-24T10:42:59.475Z,35.95
2023-02-24T10:43:59.651Z,35.88
2023-02-24T10:45:02.595Z,35.86
2023-02-24T10:45:59.644Z,35.71
2023-02-24T10:46:59.748Z,35.67
2023-02-24T10:47:59.625Z,35.64
2023-02-24T10:49:00.024Z,35.75
2023-02-24T10:49:59.737Z,36.06
2023-02-24T10:50:59.645Z,36.22
2023-02-24T10:51:59.649Z,36.21
2023-02-24T10:53:02.798Z,36.28
2023-02-24T10:57:59.711Z,36.70
2023-02-24T11:13:59.996Z,36.14
2023-02-24T12:47:05.931Z,37.43
2023-02-24T12:48:05.988Z,37.49
2023-02-24T12:49:06.062Z,37.28
2023-02-24T12:50:06.125Z,37.34
2023-02-24T12:51:06.184Z,37.17
2023-02-24T12:52:06.250Z,37.24
2023-02-24T12:53:06.324Z,37.23
2023-02-24T12:54:06.383Z,37.22
2023-02-24T15:09:15.978Z,35.82
2023-02-24T15:10:16.047Z,35.83
2023-02-24T15:11:16.130Z,35.82
2023-02-24T15:12:16.191Z,35.83
2023-02-24T15:13:16.262Z,35.81
2023-02-24T15:14:16.338Z,35.82
2023-02-24T15:15:16.405Z,35.81
2023-02-24T15:16:16.538Z,35.79
2023-02-24T15:17:16.534Z,35.80
2023-02-24T15:18:16.655Z,35.80
2023-02-24T15:19:16.688Z,35.79
2023-02-24T15:20:16.757Z,35.79
2023-02-24T15:21:16.842Z,35.78
2023-02-24T15:22:16.907Z,35.76
2023-02-24T15:23:16.983Z,35.76
2023-02-24T15:24:19.010Z,35.75
2023-02-24T15:25:17.137Z,35.75
2023-02-24T15:26:17.207Z,35.75
2023-02-24T15:27:17.282Z,35.75
2023-02-24T15:28:17.344Z,35.76
2023-02-24T15:29:17.416Z,35.76
2023-02-24T15:30:17.483Z,35.76
2023-02-24T15:31:17.728Z,35.74
2023-02-24T15:32:17.791Z,35.72
2023-02-24T15:33:17.713Z,35.71
2023-02-24T15:34:17.780Z,35.71
2023-02-24T15:35:17.849Z,35.71
2023-02-24T15:36:17.972Z,35.69
2023-02-24T15:37:17.994Z,35.70
2023-02-24T15:38:18.058Z,35.68
2023-02-24T15:39:18.151Z,35.70
2023-02-24T15:40:18.208Z,35.70
2023-02-24T15:41:18.287Z,35.70
2023-02-24T15:42:18.361Z,35.66
2023-02-24T15:43:18.495Z,35.65
2023-02-24T15:44:18.497Z,35.66
2023-02-24T15:45:18.567Z,35.68
2023-02-24T15:46:18.712Z,35.67
2023-02-24T15:47:18.710Z,35.65
2023-02-24T15:48:18.783Z,35.64
2023-02-24T15:49:18.853Z,35.62
2023-02-24T15:50:18.919Z,35.64
2023-02-24T15:51:19.061Z,35.66
2023-02-24T15:52:19.062Z,35.65
2023-02-24T15:53:19.145Z,35.65
2023-02-24T15:54:19.202Z,35.61
2023-02-24T15:55:19.264Z,35.60
2023-02-24T15:56:19.554Z,35.57
2023-02-24T15:57:19.412Z,35.61
2023-02-24T15:58:19.493Z,35.55
2023-02-24T15:59:19.602Z,35.58
2023-02-24T16:00:21.659Z,35.58
2023-02-24T16:01:19.773Z,35.56
2023-02-24T16:02:19.788Z,35.58
2023-02-24T16:03:19.840Z,35.55
2023-02-24T16:04:20.017Z,35.55
2023-02-24T16:05:19.993Z,35.53
2023-02-24T16:06:20.455Z,35.51
2023-02-24T16:07:20.159Z,35.54
2023-02-24T16:08:20.203Z,35.51
2023-02-24T16:09:20.281Z,35.49
2023-02-24T16:10:20.348Z,35.49
2023-02-24T16:11:20.404Z,35.50
2023-02-24T16:12:21.769Z,35.50
2023-02-24T16:13:20.532Z,35.50
2023-02-24T16:14:20.599Z,35.47
2023-02-24T16:15:20.677Z,35.49
2023-02-24T16:16:21.194Z,35.49
2023-02-24T16:17:20.805Z,35.49
2023-02-24T16:18:22.403Z,35.48
2023-02-24T16:19:20.946Z,35.48
2023-02-24T16:20:21.031Z,35.46
2023-02-24T16:21:21.177Z,35.47
2023-02-24T16:22:21.141Z,35.42
2023-02-24T16:23:21.199Z,35.42
2023-02-24T16:24:21.764Z,35.43
2023-02-24T16:25:21.341Z,35.42
2023-02-24T16:26:21.844Z,35.42
2023-02-24T16:27:21.475Z,35.41
2023-02-24T16:28:21.544Z,35.41
2023-02-24T16:29:21.621Z,35.40
2023-02-24T16:30:22.867Z,35.38
2023-02-24T16:31:22.029Z,35.38
2023-02-24T16:32:22.069Z,35.40
2023-02-24T16:33:22.053Z,35.38
2023-02-24T16:34:21.925Z,35.42
2023-02-24T16:35:21.989Z,35.36
2023-02-24T16:36:22.181Z,35.34
2023-02-24T16:37:22.116Z,35.37
2023-02-24T16:38:22.170Z,35.35
2023-02-24T16:39:22.238Z,35.32
2023-02-24T16:40:22.361Z,35.31
2023-02-24T16:41:22.373Z,35.30
2023-02-24T16:42:22.440Z,35.33
2023-02-24T16:43:22.514Z,35.33
2023-02-24T16:44:22.571Z,35.30
2023-02-24T16:45:22.645Z,35.30
2023-02-24T16:46:23.431Z,35.32
2023-02-24T16:47:22.789Z,35.30
2023-02-24T16:48:22.891Z,35.32
2023-02-24T16:49:22.942Z,35.27
2023-02-24T16:50:23.010Z,35.25
2023-02-24T16:51:23.082Z,35.27
2023-02-24T16:52:23.157Z,35.28
2023-02-24T16:53:23.263Z,35.21
2023-02-24T16:54:23.311Z,35.29
2023-02-24T16:55:23.374Z,35.23
2023-02-24T16:56:23.748Z,35.18
2023-02-24T16:57:23.474Z,35.22
2023-02-24T16:58:23.570Z,35.22
2023-02-24T16:59:23.611Z,35.20
2023-02-24T17:00:24.282Z,35.19
2023-02-24T17:01:23.857Z,35.21
2023-02-24T17:02:23.804Z,35.19
2023-02-24T17:03:23.878Z,35.17
2023-02-24T17:04:23.949Z,35.16
2023-02-24T17:05:24.019Z,35.16
2023-02-24T17:06:24.477Z,35.15
2023-02-24T17:07:24.200Z,35.17
2023-02-24T17:08:24.237Z,35.16
2023-02-24T17:32:26.173Z,35.09
2023-02-24T17:34:26.117Z,35.07
2023-02-24T17:35:26.189Z,35.05
2023-02-24T17:36:26.279Z,35.10
2023-02-24T17:37:26.328Z,35.06
2023-02-24T17:38:26.410Z,35.09
2023-02-24T17:39:26.473Z,35.10
2023-02-24T17:40:26.564Z,35.08
2023-02-24T17:41:26.617Z,35.04
2023-02-24T17:42:26.697Z,35.03
2023-02-24T17:43:26.765Z,35.05
2023-02-24T17:44:26.845Z,35.01
2023-02-24T17:45:26.914Z,35.01
2023-02-24T17:46:27.182Z,35.00
2023-02-24T17:47:27.054Z,35.00
2023-02-24T17:48:27.134Z,35.02
2023-02-24T17:49:27.204Z,35.01
2023-02-24T17:50:27.276Z,35.01
2023-02-24T17:51:27.339Z,35.03
2023-02-24T17:52:27.417Z,35.00
2023-02-24T17:53:27.481Z,35.01
2023-02-24T17:54:27.564Z,35.00
2023-02-24T17:55:27.647Z,35.02
2023-02-24T17:56:27.707Z,35.02
2023-02-24T17:57:27.783Z,35.03
2023-02-24T17:58:27.868Z,35.00
2023-02-24T17:59:27.919Z,35.01
2023-02-24T18:00:28.010Z,34.98
2023-02-24T18:01:28.071Z,35.00
2023-02-24T18:02:28.282Z,35.01
2023-02-24T18:03:28.237Z,34.99
2023-02-24T18:04:28.272Z,34.97
2023-02-24T19:53:35.975Z,34.75
2023-02-24T19:54:36.052Z,34.74
2023-02-24T19:55:36.112Z,34.76
2023-02-24T19:56:36.212Z,34.72
2023-02-24T19:57:36.274Z,34.74
2023-02-24T19:58:36.344Z,34.74
2023-02-24T19:59:36.432Z,34.71
2023-02-24T20:00:36.494Z,34.75
2023-02-24T20:01:36.638Z,34.75
2023-02-24T20:02:36.633Z,34.73
2023-02-24T20:03:36.712Z,34.70
2023-02-24T20:04:36.861Z,34.70
2023-02-24T20:05:36.862Z,34.67
2023-02-24T20:06:36.922Z,34.67
2023-02-24T20:07:36.999Z,34.71
2023-02-24T20:08:37.067Z,34.67
2023-02-24T20:09:37.130Z,34.69
2023-02-24T20:10:37.194Z,34.69
2023-02-24T20:11:37.260Z,34.68
2023-02-24T20:12:37.299Z,34.68
2023-02-24T20:13:37.368Z,34.68
2023-02-24T20:14:37.434Z,34.64
2023-02-24T20:15:37.482Z,34.64
2023-02-24T20:16:37.598Z,34.64
2023-02-24T20:17:37.632Z,34.65
2023-02-24T20:18:37.668Z,34.65
2023-02-24T20:19:37.745Z,34.63
2023-02-24T20:20:37.809Z,34.63
2023-02-24T20:21:37.851Z,34.65
2023-02-24T20:22:37.941Z,34.64
2023-02-24T20:23:37.993Z,34.65
2023-02-24T20:24:38.046Z,34.65
2023-02-24T20:25:38.113Z,34.64
2023-02-24T20:26:38.172Z,34.64
2023-02-24T20:27:38.241Z,34.60
2023-02-24T20:28:38.310Z,34.63
2023-02-24T20:29:38.368Z,34.61
2023-02-24T20:30:38.434Z,34.62
2023-02-24T20:31:38.641Z,34.60
2023-02-24T22:28:45.954Z,34.38
2023-02-24T22:29:46.007Z,34.37
2023-02-24T22:30:46.140Z,34.36
2023-02-24T22:31:49.381Z,34.39
2023-02-24T22:32:46.209Z,34.41
2023-02-24T22:33:46.150Z,34.36
2023-02-24T22:34:46.150Z,34.36
2023-02-24T22:35:46.145Z,34.37
2023-02-24T22:36:46.150Z,34.34
2023-02-24T22:37:46.177Z,34.34
2023-02-24T22:38:46.181Z,34.36
2023-02-24T22:39:46.240Z,34.35
2023-02-24T22:40:46.206Z,34.35
2023-02-24T22:41:46.193Z,34.33
2023-02-24T22:42:46.191Z,34.34
2023-02-24T22:43:46.205Z,34.36
2023-02-24T22:44:46.240Z,34.37
2023-02-24T22:45:46.215Z,34.33
2023-02-24T22:46:46.274Z,34.35
2023-02-24T22:47:46.324Z,34.39
2023-02-24T22:48:46.241Z,34.39
2023-02-24T22:49:46.249Z,34.42
2023-02-24T22:50:46.255Z,34.37
2023-02-24T22:51:46.276Z,34.40
2023-02-24T22:52:46.284Z,34.41
2023-02-24T22:53:46.275Z,34.37
2023-02-24T22:54:46.279Z,34.37
2023-02-24T22:55:46.278Z,34.35
2023-02-24T22:56:46.283Z,34.35
2023-02-24T22:57:46.293Z,34.38
2023-02-24T22:58:46.307Z,34.40
2023-02-24T22:59:46.301Z,34.34
2023-02-24T23:00:46.397Z,34.35
2023-02-24T23:01:46.312Z,34.38
2023-02-24T23:02:46.317Z,34.36
2023-02-24T23:03:46.429Z,34.35
2023-02-24T23:04:46.393Z,34.36